createdAt,value
2022-10-30T00:00:30.445Z,5.30
2022-10-30T00:04:40.165Z,4.95
2022-10-30T00:06:46.750Z,5.68
2022-10-30T00:08:51.592Z,5.80
2022-10-30T00:10:56.799Z,5.30
2022-10-30T00:15:10.001Z,5.65
2022-10-30T00:17:14.829Z,5.90
2022-10-30T00:19:19.677Z,5.43
2022-10-30T00:21:24.519Z,4.82
2022-10-30T00:23:29.558Z,5.10
2022-10-30T00:25:34.349Z,4.78
2022-10-30T00:27:39.149Z,4.85
2022-10-30T00:29:46.754Z,4.63
2022-10-30T00:31:51.496Z,5.30
2022-10-30T00:33:57.630Z,4.45
2022-10-30T00:36:03.004Z,5.03
2022-10-30T00:38:07.805Z,5.38
2022-10-30T00:40:18.076Z,6.03
2022-10-30T00:42:22.838Z,5.43
2022-10-30T00:44:44.028Z,4.82
2022-10-30T00:46:51.647Z,5.63
2022-10-30T00:49:00.868Z,4.97
2022-10-30T00:51:08.500Z,5.32
2022-10-30T00:53:17.810Z,4.55
2022-10-30T00:55:27.744Z,4.97
2022-10-30T00:57:34.273Z,4.72
2022-10-30T00:59:40.380Z,4.63
2022-10-30T01:01:47.788Z,4.97
2022-10-30T01:03:58.610Z,5.07
2022-10-30T01:06:05.875Z,5.22
2022-10-30T01:08:10.608Z,4.88
2022-10-30T01:10:16.238Z,4.68
2022-10-30T01:12:22.618Z,4.45
2022-10-30T01:14:27.798Z,4.70
2022-10-30T01:19:17.009Z,5.07
2022-10-30T01:21:32.764Z,4.75
2022-10-30T01:23:45.334Z,5.13
2022-10-30T01:26:03.113Z,5.15
2022-10-30T01:28:18.959Z,4.65
2022-10-30T01:30:36.838Z,5.97
2022-10-30T01:32:56.636Z,4.93
2022-10-30T01:35:11.085Z,5.05
2022-10-30T01:37:24.832Z,4.93
2022-10-30T01:39:32.480Z,5.50
2022-10-30T01:41:37.285Z,5.53
2022-10-30T01:43:43.538Z,5.15
2022-10-30T01:46:02.719Z,5.88
2022-10-30T01:48:32.940Z,5.10
2022-10-30T01:50:47.800Z,5.07
2022-10-30T01:53:00.520Z,4.32
2022-10-30T01:55:13.781Z,4.55
2022-10-30T01:57:30.523Z,4.20
2022-10-30T01:59:40.806Z,4.43
2022-10-30T02:01:46.688Z,4.55
2022-10-30T02:03:52.988Z,4.50
2022-10-30T02:06:01.090Z,4.65
2022-10-30T02:08:09.658Z,4.93
2022-10-30T02:10:17.092Z,5.25
2022-10-30T02:12:22.794Z,5.00
2022-10-30T02:14:31.541Z,5.18
2022-10-30T02:16:40.819Z,4.18
2022-10-30T02:18:48.673Z,4.45
2022-10-30T02:20:56.651Z,4.90
2022-10-30T02:23:01.963Z,4.32
2022-10-30T02:25:12.440Z,4.40
2022-10-30T02:27:17.477Z,4.90
2022-10-30T02:29:22.521Z,4.63
2022-10-30T02:31:27.363Z,4.60
2022-10-30T02:33:32.271Z,4.75
2022-10-30T02:35:37.117Z,4.50
2022-10-30T02:37:44.707Z,4.80
2022-10-30T02:39:49.527Z,5.25
2022-10-30T02:41:54.366Z,4.38
2022-10-30T02:44:00.082Z,4.57
2022-10-30T02:46:08.380Z,4.53
2022-10-30T02:50:18.080Z,4.60
2022-10-30T02:54:30.082Z,4.75
2022-10-30T02:56:34.854Z,3.88
2022-10-30T02:58:39.720Z,4.55
2022-10-30T03:00:45.627Z,4.63
2022-10-30T03:02:50.544Z,4.32
2022-10-30T03:04:55.393Z,4.25
2022-10-30T03:07:00.209Z,4.15
2022-10-30T03:09:04.981Z,4.30
2022-10-30T03:11:15.015Z,4.22
2022-10-30T03:13:19.809Z,4.68
2022-10-30T03:15:24.841Z,4.35
2022-10-30T03:17:29.627Z,4.50
2022-10-30T03:19:35.737Z,4.55
2022-10-30T03:21:40.612Z,4.30
2022-10-30T03:23:45.699Z,4.15
2022-10-30T03:25:50.689Z,4.70
2022-10-30T03:27:58.389Z,4.45
2022-10-30T03:30:03.492Z,5.10
2022-10-30T03:32:12.146Z,4.93
2022-10-30T03:34:24.430Z,6.00
2022-10-30T03:36:29.669Z,5.53
2022-10-30T03:38:34.526Z,4.75
2022-10-30T03:40:39.561Z,4.60
2022-10-30T03:42:44.321Z,4.15
2022-10-30T03:44:51.686Z,5.43
2022-10-30T03:46:56.560Z,4.18
2022-10-30T03:49:05.668Z,4.50
2022-10-30T03:53:16.113Z,4.78
2022-10-30T03:55:20.937Z,5.85
2022-10-30T03:57:26.530Z,4.82
2022-10-30T03:59:44.280Z,4.68
2022-10-30T04:04:22.997Z,4.55
2022-10-30T04:06:30.088Z,5.05
2022-10-30T04:08:34.852Z,5.20
2022-10-30T04:10:44.597Z,4.78
2022-10-30T04:12:49.972Z,4.38
2022-10-30T04:14:55.137Z,5.07
2022-10-30T04:19:07.463Z,4.50
2022-10-30T04:21:13.012Z,4.80
2022-10-30T04:23:20.332Z,4.43
2022-10-30T04:25:25.884Z,4.55
2022-10-30T04:27:30.853Z,4.70
2022-10-30T04:29:37.624Z,4.47
2022-10-30T04:31:42.708Z,4.75
2022-10-30T04:33:47.542Z,4.35
2022-10-30T04:38:01.920Z,4.30
2022-10-30T04:40:07.765Z,4.40
2022-10-30T04:42:22.726Z,4.30
2022-10-30T04:44:27.747Z,5.05
2022-10-30T04:46:34.532Z,4.97
2022-10-30T04:48:49.550Z,4.55
2022-10-30T04:50:57.117Z,4.65
2022-10-30T04:53:05.300Z,4.72
2022-10-30T04:55:11.939Z,5.30
2022-10-30T04:57:17.393Z,6.03
2022-10-30T04:59:22.280Z,5.53
2022-10-30T05:01:30.025Z,4.93
2022-10-30T05:03:36.692Z,4.88
2022-10-30T05:05:46.587Z,5.70
2022-10-30T05:07:54.208Z,5.30
2022-10-30T05:09:59.228Z,4.65
2022-10-30T05:12:04.289Z,4.20
2022-10-30T05:14:15.588Z,4.22
2022-10-30T05:16:21.951Z,3.90
2022-10-30T05:18:26.779Z,4.45
2022-10-30T05:20:31.823Z,4.68
2022-10-30T05:22:36.925Z,10.73
2022-10-30T05:24:44.420Z,8.82
2022-10-30T05:26:49.277Z,7.15
2022-10-30T05:28:54.615Z,6.57
2022-10-30T05:30:59.385Z,5.90
2022-10-30T05:33:23.704Z,5.00
2022-10-30T05:35:29.140Z,5.32
2022-10-30T05:39:39.581Z,4.93
2022-10-30T05:41:54.729Z,5.43
2022-10-30T05:44:09.501Z,5.13
2022-10-30T05:46:17.969Z,5.50
2022-10-30T05:48:24.258Z,5.32
2022-10-30T05:52:51.018Z,5.75
2022-10-30T05:54:55.838Z,5.00
2022-10-30T05:57:13.829Z,4.50
2022-10-30T05:59:19.245Z,5.57
2022-10-30T06:01:26.850Z,5.22
2022-10-30T06:03:35.439Z,5.45
2022-10-30T06:05:40.831Z,6.05
2022-10-30T06:07:45.895Z,5.00
2022-10-30T06:09:50.658Z,4.75
2022-10-30T06:12:05.865Z,6.05
2022-10-30T06:14:33.505Z,5.57
2022-10-30T06:16:38.283Z,6.00
2022-10-30T06:19:01.584Z,5.25
2022-10-30T06:21:08.372Z,4.93
2022-10-30T06:23:28.951Z,4.90
2022-10-30T06:25:42.092Z,4.57
2022-10-30T06:27:51.512Z,4.88
2022-10-30T06:29:59.189Z,5.53
2022-10-30T06:32:06.717Z,5.03
2022-10-30T06:34:12.172Z,5.22
2022-10-30T06:36:19.087Z,5.07
2022-10-30T06:38:24.413Z,5.22
2022-10-30T06:40:32.368Z,5.38
2022-10-30T06:43:00.783Z,5.40
2022-10-30T06:45:18.471Z,5.32
2022-10-30T06:47:23.413Z,4.88
2022-10-30T06:49:29.773Z,5.57
2022-10-30T06:51:34.999Z,5.82
2022-10-30T06:53:40.923Z,5.35
2022-10-30T06:58:42.471Z,4.70
2022-10-30T07:00:53.693Z,4.75
2022-10-30T07:03:27.954Z,5.80
2022-10-30T07:05:32.890Z,5.50
2022-10-30T07:07:39.154Z,6.28
2022-10-30T07:09:46.613Z,5.72
2022-10-30T07:11:56.603Z,5.50
2022-10-30T07:14:04.566Z,4.72
2022-10-30T07:16:30.664Z,4.68
2022-10-30T07:18:35.485Z,5.57
2022-10-30T07:24:52.958Z,5.25
2022-10-30T07:27:15.981Z,5.00
2022-10-30T07:29:49.779Z,5.50
2022-10-30T07:32:03.545Z,5.28
2022-10-30T07:36:33.534Z,5.20
2022-10-30T07:38:56.757Z,5.70
2022-10-30T07:41:24.908Z,6.18
2022-10-30T07:43:38.271Z,5.85
2022-10-30T07:46:12.033Z,5.28
2022-10-30T07:48:54.597Z,6.07
2022-10-30T07:51:05.939Z,5.13
2022-10-30T07:53:10.977Z,5.68
2022-10-30T07:55:15.931Z,5.60
2022-10-30T07:57:26.347Z,5.43
2022-10-30T07:59:49.768Z,5.75
2022-10-30T08:02:17.372Z,5.88
2022-10-30T08:04:54.620Z,5.75
2022-10-30T08:07:19.740Z,5.82
2022-10-30T08:09:24.479Z,5.45
2022-10-30T08:11:29.352Z,4.82
2022-10-30T08:13:36.075Z,5.93
2022-10-30T08:15:40.974Z,5.05
2022-10-30T08:17:47.568Z,5.90
2022-10-30T08:19:55.493Z,5.00
2022-10-30T08:22:02.278Z,4.97
2022-10-30T08:24:11.863Z,5.65
2022-10-30T08:26:19.543Z,5.90
2022-10-30T08:28:29.955Z,4.88
2022-10-30T08:30:39.157Z,5.38
2022-10-30T08:32:46.930Z,4.95
2022-10-30T08:35:17.204Z,5.45
2022-10-30T08:37:24.722Z,5.53
2022-10-30T08:39:29.783Z,5.68
2022-10-30T08:42:02.051Z,5.70
2022-10-30T08:44:12.545Z,5.38
2022-10-30T08:46:50.429Z,5.53
2022-10-30T08:48:57.270Z,5.63
2022-10-30T08:51:04.907Z,5.78
2022-10-30T08:53:16.812Z,5.38
2022-10-30T08:55:23.622Z,5.38
2022-10-30T08:57:30.832Z,5.57
2022-10-30T08:59:35.823Z,5.82
2022-10-30T09:03:57.361Z,5.60
2022-10-30T09:06:23.450Z,5.10
2022-10-30T09:08:57.385Z,5.32
2022-10-30T09:13:30.997Z,5.32
2022-10-30T09:15:36.746Z,5.80
2022-10-30T09:17:43.971Z,5.60
2022-10-30T09:22:02.508Z,5.13
2022-10-30T09:24:09.643Z,5.30
2022-10-30T09:26:16.951Z,5.30
2022-10-30T09:28:39.587Z,6.15
2022-10-30T09:31:09.667Z,5.68
2022-10-30T09:33:16.773Z,5.65
2022-10-30T09:35:50.239Z,5.18
2022-10-30T09:37:58.326Z,5.47
2022-10-30T09:40:04.595Z,5.03
2022-10-30T09:42:27.457Z,4.68
2022-10-30T09:44:48.677Z,4.90
2022-10-30T09:47:10.001Z,5.68
2022-10-30T09:49:28.112Z,4.93
2022-10-30T09:52:10.657Z,5.63
2022-10-30T09:54:35.625Z,4.38
2022-10-30T09:56:47.465Z,5.72
2022-10-30T09:59:05.095Z,5.25
2022-10-30T10:01:19.343Z,5.38
2022-10-30T10:03:46.221Z,4.97
2022-10-30T10:06:19.974Z,5.45
2022-10-30T10:08:43.755Z,5.20
2022-10-30T10:11:15.496Z,5.20
2022-10-30T10:13:31.456Z,4.75
2022-10-30T10:15:42.719Z,4.68
2022-10-30T10:17:48.860Z,4.32
2022-10-30T10:20:02.148Z,4.55
2022-10-30T10:22:16.110Z,4.38
2022-10-30T10:24:25.711Z,4.28
2022-10-30T10:26:38.685Z,4.82
2022-10-30T10:29:04.361Z,4.60
2022-10-30T10:31:16.617Z,4.93
2022-10-30T10:33:44.320Z,5.70
2022-10-30T10:36:10.149Z,5.00
2022-10-30T10:38:29.318Z,4.72
2022-10-30T10:40:48.654Z,4.63
2022-10-30T10:43:10.220Z,4.50
2022-10-30T10:45:30.877Z,5.50
2022-10-30T10:47:55.494Z,4.60
2022-10-30T10:50:14.920Z,4.28
2022-10-30T10:52:25.851Z,4.93
2022-10-30T10:54:34.639Z,4.70
2022-10-30T10:56:42.637Z,4.80
2022-10-30T10:58:54.411Z,4.05
2022-10-30T11:01:00.954Z,4.25
2022-10-30T11:03:12.416Z,5.60
2022-10-30T11:05:25.741Z,4.60
2022-10-30T11:07:35.119Z,4.90
2022-10-30T11:09:40.172Z,4.82
2022-10-30T11:13:52.782Z,4.45
2022-10-30T11:16:07.420Z,4.00
2022-10-30T11:18:14.717Z,4.85
2022-10-30T11:20:23.725Z,4.30
2022-10-30T11:22:34.318Z,4.63
2022-10-30T11:24:39.534Z,5.30
2022-10-30T11:26:45.435Z,5.65
2022-10-30T11:28:56.547Z,4.80
2022-10-30T11:31:22.597Z,5.22
2022-10-30T11:33:31.584Z,4.40
2022-10-30T11:35:45.226Z,5.72
2022-10-30T11:37:52.057Z,4.60
2022-10-30T11:40:05.877Z,4.30
2022-10-30T11:42:17.429Z,3.92
2022-10-30T11:44:26.882Z,5.57
2022-10-30T11:46:31.854Z,4.75
2022-10-30T11:48:37.306Z,4.47
2022-10-30T11:50:50.458Z,5.55
2022-10-30T11:52:58.694Z,4.57
2022-10-30T11:55:11.011Z,4.47
2022-10-30T11:57:25.911Z,3.78
2022-10-30T11:59:33.539Z,4.70
2022-10-30T12:01:39.515Z,4.10
2022-10-30T12:03:47.849Z,4.63
2022-10-30T12:05:52.584Z,4.70
2022-10-30T12:08:13.868Z,3.92
2022-10-30T12:10:27.655Z,4.85
2022-10-30T12:12:37.198Z,8.05
2022-10-30T12:14:44.866Z,6.60
2022-10-30T12:16:51.412Z,5.13
2022-10-30T12:19:05.631Z,8.63
2022-10-30T12:21:12.171Z,4.80
2022-10-30T12:23:22.235Z,4.57
2022-10-30T12:25:30.996Z,5.20
2022-10-30T12:27:40.405Z,6.13
2022-10-30T12:30:08.435Z,5.10
2022-10-30T12:32:20.323Z,4.97
2022-10-30T12:34:36.816Z,4.53
2022-10-30T12:36:48.910Z,5.95
2022-10-30T12:38:59.917Z,5.13
2022-10-30T12:41:16.792Z,4.10
2022-10-30T12:43:28.625Z,5.50
2022-10-30T12:45:43.462Z,4.10
2022-10-30T12:47:54.381Z,4.63
2022-10-30T12:52:15.669Z,4.85
2022-10-30T12:54:33.725Z,5.60
2022-10-30T12:56:41.527Z,5.20
2022-10-30T12:58:53.778Z,4.70
2022-10-30T13:01:07.855Z,5.30
2022-10-30T13:03:25.521Z,5.57
2022-10-30T13:05:36.586Z,5.18
2022-10-30T13:07:47.903Z,5.88
2022-10-30T13:10:00.785Z,4.65
2022-10-30T13:12:09.279Z,5.03
2022-10-30T13:14:16.216Z,5.85
2022-10-30T13:16:29.020Z,5.10
2022-10-30T13:18:34.252Z,4.80
2022-10-30T13:20:39.065Z,5.65
2022-10-30T13:22:51.356Z,4.75
2022-10-30T13:25:04.262Z,4.57
2022-10-30T13:27:17.605Z,4.88
2022-10-30T13:29:30.885Z,4.43
2022-10-30T13:31:50.784Z,4.68
2022-10-30T13:34:03.924Z,5.30
2022-10-30T13:36:17.697Z,5.82
2022-10-30T13:38:38.167Z,5.00
2022-10-30T13:40:47.786Z,5.13
2022-10-30T13:43:02.103Z,5.40
2022-10-30T13:45:26.644Z,5.75
2022-10-30T13:47:45.326Z,5.20
2022-10-30T13:50:09.652Z,5.28
2022-10-30T13:52:18.408Z,4.65
2022-10-30T13:54:27.254Z,5.10
2022-10-30T13:56:32.784Z,4.10
2022-10-30T13:58:42.925Z,5.35
2022-10-30T14:01:02.711Z,5.63
2022-10-30T14:03:19.384Z,5.40
2022-10-30T14:05:35.725Z,4.32
2022-10-30T14:07:49.330Z,5.22
2022-10-30T14:10:02.732Z,4.82
2022-10-30T14:12:37.250Z,5.30
2022-10-30T14:14:51.584Z,5.22
2022-10-30T14:17:13.740Z,5.38
2022-10-30T14:19:21.785Z,4.80
2022-10-30T14:21:35.040Z,4.38
2022-10-30T14:23:42.958Z,4.63
2022-10-30T14:25:47.849Z,4.32
2022-10-30T14:27:59.112Z,4.45
2022-10-30T14:30:04.437Z,4.50
2022-10-30T14:35:00.943Z,4.47
2022-10-30T14:37:05.823Z,3.80
2022-10-30T14:39:48.707Z,4.82
2022-10-30T14:42:04.967Z,4.68
2022-10-30T14:44:22.451Z,5.32
2022-10-30T14:46:35.767Z,5.45
2022-10-30T14:48:52.479Z,7.22
2022-10-30T14:51:10.691Z,5.57
2022-10-30T14:53:32.621Z,5.75
2022-10-30T14:55:50.478Z,6.35
2022-10-30T14:57:57.379Z,6.22
2022-10-30T15:00:31.559Z,5.90
2022-10-30T15:02:44.911Z,6.57
2022-10-30T15:05:09.573Z,5.28
2022-10-30T15:07:27.746Z,5.70
2022-10-30T15:09:46.828Z,7.70
2022-10-30T15:12:06.751Z,6.47
2022-10-30T15:14:21.687Z,6.93
2022-10-30T15:16:32.660Z,6.22
2022-10-30T15:18:37.797Z,5.82
2022-10-30T15:20:43.165Z,6.72
2022-10-30T15:22:53.255Z,7.70
2022-10-30T15:24:58.583Z,7.03
2022-10-30T15:27:05.085Z,8.38
2022-10-30T15:29:16.023Z,8.60
2022-10-30T15:31:26.204Z,9.48
2022-10-30T15:33:31.628Z,9.98
2022-10-30T15:35:36.448Z,8.43
2022-10-30T15:37:43.641Z,9.07
2022-10-30T15:39:50.965Z,9.00
2022-10-30T15:41:59.973Z,8.65
2022-10-30T15:44:04.880Z,9.27
2022-10-30T15:48:25.776Z,12.30
2022-10-30T15:50:31.784Z,11.25
2022-10-30T15:52:37.837Z,9.73
2022-10-30T15:54:44.528Z,11.63
2022-10-30T15:57:31.373Z,14.27
2022-10-30T15:59:26.053Z,10.38
2022-10-30T16:01:34.800Z,7.38
2022-10-30T16:03:42.155Z,6.47
2022-10-30T16:05:49.187Z,8.77
2022-10-30T16:07:57.575Z,9.43
2022-10-30T16:10:06.043Z,9.95
2022-10-30T16:12:14.397Z,9.90
2022-10-30T16:14:24.463Z,8.27
2022-10-30T16:16:33.724Z,9.63
2022-10-30T16:18:39.257Z,11.40
2022-10-30T16:20:47.093Z,11.35
2022-10-30T16:22:51.882Z,11.57
2022-10-30T16:24:58.589Z,13.00
2022-10-30T16:27:12.965Z,12.00
2022-10-30T16:29:39.507Z,12.55
2022-10-30T16:31:50.328Z,10.95
2022-10-30T16:33:55.575Z,11.63
2022-10-30T16:36:01.167Z,11.40
2022-10-30T16:38:06.146Z,11.25
2022-10-30T16:40:16.658Z,11.00
2022-10-30T16:42:23.543Z,11.30
2022-10-30T16:44:35.314Z,11.45
2022-10-30T16:46:42.638Z,13.48
2022-10-30T16:48:54.534Z,13.82
2022-10-30T16:51:05.846Z,13.13
2022-10-30T16:53:17.560Z,11.45
2022-10-30T16:55:24.538Z,11.77
2022-10-30T16:57:32.011Z,11.00
2022-10-30T16:59:47.020Z,11.27
2022-10-30T17:01:57.615Z,11.93
2022-10-30T17:04:02.907Z,11.55
2022-10-30T17:06:10.232Z,11.13
2022-10-30T17:08:35.739Z,11.88
2022-10-30T17:11:00.652Z,11.00
2022-10-30T17:13:32.732Z,12.98
2022-10-30T17:15:40.290Z,12.25
2022-10-30T17:17:45.577Z,11.90
2022-10-30T17:19:51.472Z,11.80
2022-10-30T17:21:56.398Z,12.73
2022-10-30T17:24:02.751Z,13.32
2022-10-30T17:26:14.748Z,14.95
2022-10-30T17:28:29.231Z,15.68
2022-10-30T17:30:42.543Z,18.08
2022-10-30T17:32:48.985Z,15.90
2022-10-30T17:35:00.747Z,13.93
2022-10-30T17:37:05.659Z,14.75
2022-10-30T17:39:10.558Z,13.95
2022-10-30T17:41:17.356Z,14.98
2022-10-30T17:43:22.353Z,15.43
2022-10-30T17:45:27.163Z,13.60
2022-10-30T17:47:34.491Z,12.35
2022-10-30T17:49:39.259Z,13.55
2022-10-30T17:51:44.028Z,14.10
2022-10-30T17:53:50.483Z,14.32
2022-10-30T17:56:01.452Z,14.00
2022-10-30T17:58:07.642Z,15.35
2022-10-30T18:00:13.872Z,16.98
2022-10-30T18:02:20.639Z,14.88
2022-10-30T18:04:28.627Z,14.57
2022-10-30T18:06:33.469Z,14.75
2022-10-30T18:08:38.290Z,15.20
2022-10-30T18:10:43.337Z,14.63
2022-10-30T18:12:48.159Z,14.82
2022-10-30T18:14:53.391Z,16.45
2022-10-30T18:19:02.824Z,13.77
2022-10-30T18:21:14.579Z,12.48
2022-10-30T18:25:47.501Z,10.80
2022-10-30T18:27:52.480Z,11.43
2022-10-30T18:30:03.630Z,11.05
2022-10-30T18:32:09.837Z,13.63
2022-10-30T18:34:23.829Z,14.27
2022-10-30T18:36:31.777Z,14.40
2022-10-30T18:38:44.153Z,14.27
2022-10-30T18:41:16.494Z,15.45
2022-10-30T18:43:21.272Z,15.10
2022-10-30T18:45:32.712Z,15.73
2022-10-30T18:47:43.406Z,15.50
2022-10-30T18:49:48.268Z,16.92
2022-10-30T18:51:56.983Z,15.45
2022-10-30T18:54:01.770Z,13.57
2022-10-30T18:56:22.604Z,11.57
2022-10-30T18:58:27.406Z,10.75
2022-10-30T19:00:45.111Z,11.35
2022-10-30T19:02:58.737Z,10.70
2022-10-30T19:05:04.323Z,12.15
2022-10-30T19:07:14.754Z,11.07
2022-10-30T19:09:19.524Z,10.57
2022-10-30T19:11:30.225Z,9.98
2022-10-30T19:13:36.309Z,9.88
2022-10-30T19:15:43.502Z,11.40
2022-10-30T19:17:48.579Z,12.90
2022-10-30T19:19:53.424Z,11.05
2022-10-30T19:21:58.184Z,12.23
2022-10-30T19:24:11.726Z,11.73
2022-10-30T19:26:17.603Z,11.60
2022-10-30T19:28:26.481Z,12.63
2022-10-30T19:30:32.142Z,12.32
2022-10-30T19:32:36.908Z,12.38
2022-10-30T19:34:45.788Z,15.18
2022-10-30T19:36:50.722Z,14.77
2022-10-30T19:38:56.019Z,13.55
2022-10-30T19:43:08.231Z,15.93
2022-10-30T19:45:13.552Z,19.50
2022-10-30T19:47:18.352Z,19.92
2022-10-30T19:49:25.800Z,17.40
2022-10-30T19:51:31.047Z,17.30
2022-10-30T19:55:41.945Z,14.45
2022-10-30T19:57:49.572Z,15.60
2022-10-30T19:59:54.338Z,14.50
2022-10-30T20:01:59.479Z,15.38
2022-10-30T20:04:04.432Z,14.70
2022-10-30T20:06:09.902Z,14.10
2022-10-30T20:08:16.493Z,12.20
2022-10-30T20:10:23.388Z,12.05
2022-10-30T20:12:30.829Z,10.43
2022-10-30T20:14:38.501Z,10.70
2022-10-30T20:16:43.383Z,11.50
2022-10-30T20:18:48.250Z,11.18
2022-10-30T20:20:55.656Z,11.32
2022-10-30T20:23:01.988Z,11.63
2022-10-30T20:25:07.490Z,10.32
2022-10-30T20:27:13.469Z,10.27
2022-10-30T20:29:18.784Z,10.30
2022-10-30T20:31:26.169Z,11.23
2022-10-30T20:33:31.767Z,9.50
2022-10-30T20:35:37.688Z,9.40
2022-10-30T20:37:42.772Z,9.05
2022-10-30T20:41:55.306Z,8.07
2022-10-30T20:44:00.424Z,9.25
2022-10-30T20:46:09.294Z,8.00
2022-10-30T20:48:17.157Z,10.23
2022-10-30T20:50:23.171Z,10.95
2022-10-30T20:52:27.909Z,10.05
2022-10-30T20:54:32.689Z,9.50
2022-10-30T20:56:37.522Z,10.25
2022-10-30T20:58:42.680Z,10.63
2022-10-30T21:00:47.646Z,10.05
2022-10-30T21:02:52.539Z,9.25
2022-10-30T21:05:11.437Z,9.77
2022-10-30T21:07:26.470Z,8.90
2022-10-30T21:09:31.330Z,10.48
2022-10-30T21:11:36.174Z,9.30
2022-10-30T21:13:40.975Z,10.43
2022-10-30T21:17:51.439Z,10.90
2022-10-30T21:19:56.194Z,9.43
2022-10-30T21:22:04.967Z,9.45
2022-10-30T21:24:10.245Z,9.43
2022-10-30T21:26:15.720Z,9.98
2022-10-30T21:28:20.653Z,8.82
2022-10-30T21:30:27.488Z,10.57
2022-10-30T21:32:32.989Z,10.15
2022-10-30T21:34:37.924Z,8.73
2022-10-30T21:36:43.066Z,11.07
2022-10-30T21:38:50.518Z,9.93
2022-10-30T21:40:58.554Z,8.93
2022-10-30T21:43:04.595Z,8.60
2022-10-30T21:45:11.335Z,10.13
2022-10-30T21:47:16.848Z,9.70
2022-10-30T21:49:21.630Z,9.10
2022-10-30T21:51:31.119Z,10.10
2022-10-30T21:53:35.930Z,9.38
2022-10-30T21:55:43.390Z,9.55
2022-10-30T21:57:48.164Z,8.60
2022-10-30T21:59:53.028Z,9.38
2022-10-30T22:01:57.809Z,9.38
2022-10-30T22:04:03.459Z,8.70
2022-10-30T22:06:09.643Z,8.60
2022-10-30T22:08:14.336Z,8.48
2022-10-30T22:10:19.359Z,10.40
2022-10-30T22:12:26.771Z,9.70
2022-10-30T22:14:31.507Z,9.35
2022-10-30T22:16:39.642Z,9.68
2022-10-30T22:18:44.589Z,9.75
2022-10-30T22:20:49.331Z,10.43
2022-10-30T22:22:55.923Z,10.00
2022-10-30T22:25:00.903Z,9.65
2022-10-30T22:27:05.670Z,9.88
2022-10-30T22:29:14.063Z,9.43
2022-10-30T22:31:21.322Z,9.20
2022-10-30T22:33:26.120Z,9.60
2022-10-30T22:35:30.885Z,9.05
2022-10-30T22:37:35.694Z,9.55
2022-10-30T22:39:40.437Z,9.27
2022-10-30T22:41:45.584Z,8.70
2022-10-30T22:45:58.636Z,9.82
2022-10-30T22:48:03.451Z,9.68
2022-10-30T22:50:09.470Z,8.73
2022-10-30T22:52:14.212Z,8.25
2022-10-30T22:54:18.934Z,8.25
2022-10-30T22:56:28.423Z,8.13
2022-10-30T22:58:33.364Z,7.90
2022-10-30T23:00:38.135Z,7.78
2022-10-30T23:02:47.110Z,7.82
2022-10-30T23:04:51.866Z,8.05
2022-10-30T23:06:56.530Z,10.85
2022-10-30T23:09:02.645Z,9.02
2022-10-30T23:11:08.525Z,9.05
2022-10-30T23:13:13.342Z,9.13
2022-10-30T23:15:18.224Z,8.02
2022-10-30T23:17:22.975Z,9.32
2022-10-30T23:19:31.839Z,8.52
2022-10-30T23:21:37.118Z,9.60
2022-10-30T23:25:47.350Z,8.77
2022-10-30T23:27:52.499Z,8.02
2022-10-30T23:32:01.701Z,8.63
2022-10-30T23:34:08.546Z,8.75
2022-10-30T23:36:15.997Z,8.75
2022-10-30T23:38:20.759Z,8.07
2022-10-30T23:40:25.680Z,7.32
2022-10-30T23:42:30.433Z,7.88
2022-10-30T23:44:35.128Z,7.13
2022-10-30T23:46:40.132Z,7.82
2022-10-30T23:48:44.858Z,7.07
2022-10-30T23:50:49.891Z,6.88
2022-10-30T23:52:57.220Z,7.10
2022-10-30T23:55:01.980Z,6.43
2022-10-30T23:57:07.072Z,7.25
